sensor_id;sensor_type;location;lat;lon;timestamp;temperature;humidity
21551;DHT22;10936;49.836;7.078;2022-08-21T06:01:49;18.40;99.90
21551;DHT22;10936;49.836;7.078;2022-08-21T06:04:17;18.30;99.90
21551;DHT22;10936;49.836;7.078;2022-08-21T06:06:43;18.30;99.90
21551;DHT22;10936;49.836;7.078;2022-08-21T06:09:09;18.30;99.90
21551;DHT22;10936;49.836;7.078;2022-08-21T06:11:34;18.40;99.90
21551;DHT22;10936;49.836;7.078;2022-08-21T06:14:00;18.50;99.90
21551;DHT22;10936;49.836;7.078;2022-08-21T06:16:27;18.70;99.90
21551;DHT22;10936;49.836;7.078;2022-08-21T06:18:52;18.90;99.90
21551;DHT22;10936;49.836;7.078;2022-08-21T06:21:18;19.10;99.90
21551;DHT22;10936;49.836;7.078;2022-08-21T06:23:44;19.20;99.90
21551;DHT22;10936;49.836;7.078;2022-08-21T06:26:12;19.30;99.90
21551;DHT22;10936;49.836;7.078;2022-08-21T06:28:38;19.50;99.90
21551;DHT22;10936;49.836;7.078;2022-08-21T06:31:30;19.60;99.90
21551;DHT22;10936;49.836;7.078;2022-08-21T06:33:56;19.70;99.80
21551;DHT22;10936;49.836;7.078;2022-08-21T06:36:22;19.90;99.60
21551;DHT22;10936;49.836;7.078;2022-08-21T06:38:49;20.00;99.40
21551;DHT22;10936;49.836;7.078;2022-08-21T06:41:15;20.10;99.20
21551;DHT22;10936;49.836;7.078;2022-08-21T06:43:40;20.20;99.00
21551;DHT22;10936;49.836;7.078;2022-08-21T06:46:07;20.30;98.70
21551;DHT22;10936;49.836;7.078;2022-08-21T06:48:33;20.40;98.70
21551;DHT22;10936;49.836;7.078;2022-08-21T06:51:00;20.50;98.70
21551;DHT22;10936;49.836;7.078;2022-08-21T06:53:26;20.60;98.40
21551;DHT22;10936;49.836;7.078;2022-08-21T06:55:52;20.70;98.10
21551;DHT22;10936;49.836;7.078;2022-08-21T06:58:17;20.70;98.00
21551;DHT22;10936;49.836;7.078;2022-08-21T07:00:47;20.80;98.00
21551;DHT22;10936;49.836;7.078;2022-08-21T07:03:40;20.80;97.90
21551;DHT22;10936;49.836;7.078;2022-08-21T07:06:08;20.80;98.00
21551;DHT22;10936;49.836;7.078;2022-08-21T07:08:35;20.90;98.10
21551;DHT22;10936;49.836;7.078;2022-08-21T07:11:03;21.00;98.10
21551;DHT22;10936;49.836;7.078;2022-08-21T07:13:29;21.10;98.00
21551;DHT22;10936;49.836;7.078;2022-08-21T07:15:55;21.10;97.90
21551;DHT22;10936;49.836;7.078;2022-08-21T07:18:21;21.20;97.70
21551;DHT22;10936;49.836;7.078;2022-08-21T07:20:47;21.30;97.60
21551;DHT22;10936;49.836;7.078;2022-08-21T07:23:26;21.40;97.50
21551;DHT22;10936;49.836;7.078;2022-08-21T07:25:53;21.40;97.30
21551;DHT22;10936;49.836;7.078;2022-08-21T07:28:19;21.50;97.20
21551;DHT22;10936;49.836;7.078;2022-08-21T07:30:45;21.50;97.10
21551;DHT22;10936;49.836;7.078;2022-08-21T07:33:11;21.60;97.10
21551;DHT22;10936;49.836;7.078;2022-08-21T07:35:37;21.60;96.90
21551;DHT22;10936;49.836;7.078;2022-08-21T07:38:03;21.70;96.90
21551;DHT22;10936;49.836;7.078;2022-08-21T07:40:29;21.70;96.80
21551;DHT22;10936;49.836;7.078;2022-08-21T07:42:55;21.80;96.80
21551;DHT22;10936;49.836;7.078;2022-08-21T07:45:22;21.80;96.70
21551;DHT22;10936;49.836;7.078;2022-08-21T07:47:50;21.90;96.70
21551;DHT22;10936;49.836;7.078;2022-08-21T07:50:17;21.90;96.70
21551;DHT22;10936;49.836;7.078;2022-08-21T07:52:44;22.00;96.60
21551;DHT22;10936;49.836;7.078;2022-08-21T07:55:12;22.00;96.60
21551;DHT22;10936;49.836;7.078;2022-08-21T07:57:39;22.00;96.50
21551;DHT22;10936;49.836;7.078;2022-08-21T08:00:07;22.10;96.50
21551;DHT22;10936;49.836;7.078;2022-08-21T08:02:33;22.10;96.50
21551;DHT22;10936;49.836;7.078;2022-08-21T08:05:00;22.10;96.40
21551;DHT22;10936;49.836;7.078;2022-08-21T08:07:27;22.20;96.40
21551;DHT22;10936;49.836;7.078;2022-08-21T08:09:52;22.30;96.30
21551;DHT22;10936;49.836;7.078;2022-08-21T08:12:18;22.30;96.30
21551;DHT22;10936;49.836;7.078;2022-08-21T08:14:45;22.30;96.20
21551;DHT22;10936;49.836;7.078;2022-08-21T08:17:11;22.30;96.10
21551;DHT22;10936;49.836;7.078;2022-08-21T08:19:39;22.30;96.10
21551;DHT22;10936;49.836;7.078;2022-08-21T08:22:15;22.40;96.10
21551;DHT22;10936;49.836;7.078;2022-08-21T08:24:41;22.40;96.00
21551;DHT22;10936;49.836;7.078;2022-08-21T08:27:07;22.40;95.90
21551;DHT22;10936;49.836;7.078;2022-08-21T08:29:33;22.40;95.90
21551;DHT22;10936;49.836;7.078;2022-08-21T08:31:59;22.50;95.90
21551;DHT22;10936;49.836;7.078;2022-08-21T08:34:24;22.50;95.80
21551;DHT22;10936;49.836;7.078;2022-08-21T08:36:50;22.60;95.80
21551;DHT22;10936;49.836;7.078;2022-08-21T08:39:16;22.60;95.70
21551;DHT22;10936;49.836;7.078;2022-08-21T08:41:43;22.60;95.60
21551;DHT22;10936;49.836;7.078;2022-08-21T08:44:10;22.60;95.50
21551;DHT22;10936;49.836;7.078;2022-08-21T08:46:47;22.60;95.50
21551;DHT22;10936;49.836;7.078;2022-08-21T08:52:06;22.70;95.60
21551;DHT22;10936;49.836;7.078;2022-08-21T08:54:40;22.70;95.30
21551;DHT22;10936;49.836;7.078;2022-08-21T08:57:14;22.70;95.30
21551;DHT22;10936;49.836;7.078;2022-08-21T08:59:43;22.80;95.20
21551;DHT22;10936;49.836;7.078;2022-08-21T09:02:12;22.80;95.10
21551;DHT22;10936;49.836;7.078;2022-08-21T09:04:38;22.80;95.10
21551;DHT22;10936;49.836;7.078;2022-08-21T09:11:04;22.80;94.90
21551;DHT22;10936;49.836;7.078;2022-08-21T09:18:59;22.90;94.90
21551;DHT22;10936;49.836;7.078;2022-08-21T09:24:53;22.90;94.70
21551;DHT22;10936;49.836;7.078;2022-08-21T09:27:07;23.00;94.70
21551;DHT22;10936;49.836;7.078;2022-08-21T09:29:37;23.00;94.70
21551;DHT22;10936;49.836;7.078;2022-08-21T09:32:17;23.00;94.60
21551;DHT22;10936;49.836;7.078;2022-08-21T09:35:16;23.00;94.60
21551;DHT22;10936;49.836;7.078;2022-08-21T09:40:31;23.10;94.50
21551;DHT22;10936;49.836;7.078;2022-08-21T09:45:41;23.10;94.50
21551;DHT22;10936;49.836;7.078;2022-08-21T09:48:15;23.20;94.90
21551;DHT22;10936;49.836;7.078;2022-08-21T09:50:43;23.20;94.50
21551;DHT22;10936;49.836;7.078;2022-08-21T09:55:58;23.20;94.50
21551;DHT22;10936;49.836;7.078;2022-08-21T09:58:46;23.30;94.50
21551;DHT22;10936;49.836;7.078;2022-08-21T10:01:24;23.20;94.40
21551;DHT22;10936;49.836;7.078;2022-08-21T10:04:10;23.30;94.40
21551;DHT22;10936;49.836;7.078;2022-08-21T10:06:36;23.30;94.40
21551;DHT22;10936;49.836;7.078;2022-08-21T10:09:14;23.30;94.30
21551;DHT22;10936;49.836;7.078;2022-08-21T10:12:30;23.40;94.30
21551;DHT22;10936;49.836;7.078;2022-08-21T10:17:04;23.40;94.20
21551;DHT22;10936;49.836;7.078;2022-08-21T10:22:24;23.40;94.10
21551;DHT22;10936;49.836;7.078;2022-08-21T10:35:45;23.50;93.90
21551;DHT22;10936;49.836;7.078;2022-08-21T10:44:12;23.60;93.80
21551;DHT22;10936;49.836;7.078;2022-08-21T10:54:57;23.60;93.70
21551;DHT22;10936;49.836;7.078;2022-08-21T10:57:58;23.60;93.70
21551;DHT22;10936;49.836;7.078;2022-08-21T11:00:56;23.60;93.70
21551;DHT22;10936;49.836;7.078;2022-08-21T11:03:35;23.60;93.60
21551;DHT22;10936;49.836;7.078;2022-08-21T11:06:19;23.70;93.60
21551;DHT22;10936;49.836;7.078;2022-08-21T11:08:50;23.70;93.60
21551;DHT22;10936;49.836;7.078;2022-08-21T11:11:31;23.70;93.60
21551;DHT22;10936;49.836;7.078;2022-08-21T11:14:03;23.70;93.60
21551;DHT22;10936;49.836;7.078;2022-08-21T11:16:53;23.70;93.50
21551;DHT22;10936;49.836;7.078;2022-08-21T11:19:33;23.70;93.50
21551;DHT22;10936;49.836;7.078;2022-08-21T11:24:54;23.80;93.40
21551;DHT22;10936;49.836;7.078;2022-08-21T11:27:38;23.80;93.40
21551;DHT22;10936;49.836;7.078;2022-08-21T11:30:07;23.80;93.40
21551;DHT22;10936;49.836;7.078;2022-08-21T11:36:25;23.80;93.30
21551;DHT22;10936;49.836;7.078;2022-08-21T11:39:16;23.80;93.30
21551;DHT22;10936;49.836;7.078;2022-08-21T11:44:46;23.80;93.30
21551;DHT22;10936;49.836;7.078;2022-08-21T11:50:13;23.80;93.20
21551;DHT22;10936;49.836;7.078;2022-08-21T11:52:55;23.90;93.20
21551;DHT22;10936;49.836;7.078;2022-08-21T11:55:23;23.90;93.20
21551;DHT22;10936;49.836;7.078;2022-08-21T11:58:20;23.90;93.20
21551;DHT22;10936;49.836;7.078;2022-08-21T12:00:58;23.90;93.50
21551;DHT22;10936;49.836;7.078;2022-08-21T12:03:29;23.90;93.10
21551;DHT22;10936;49.836;7.078;2022-08-21T12:06:08;23.90;93.10
21551;DHT22;10936;49.836;7.078;2022-08-21T12:08:38;23.90;93.10
21551;DHT22;10936;49.836;7.078;2022-08-21T12:11:08;24.00;93.00
21551;DHT22;10936;49.836;7.078;2022-08-21T12:13:37;24.00;93.00
21551;DHT22;10936;49.836;7.078;2022-08-21T12:16:14;24.00;93.00
21551;DHT22;10936;49.836;7.078;2022-08-21T12:18:42;24.00;93.00
21551;DHT22;10936;49.836;7.078;2022-08-21T12:21:21;24.00;93.00
21551;DHT22;10936;49.836;7.078;2022-08-21T12:26:29;24.00;92.90
21551;DHT22;10936;49.836;7.078;2022-08-21T12:29:07;24.00;92.90
21551;DHT22;10936;49.836;7.078;2022-08-21T12:31:35;24.00;92.80
21551;DHT22;10936;49.836;7.078;2022-08-21T12:34:12;24.00;92.80
21551;DHT22;10936;49.836;7.078;2022-08-21T12:36:46;24.00;92.80
21551;DHT22;10936;49.836;7.078;2022-08-21T12:39:15;24.00;92.80
21551;DHT22;10936;49.836;7.078;2022-08-21T12:42:06;24.10;92.80
21551;DHT22;10936;49.836;7.078;2022-08-21T12:45:27;24.10;92.80
21551;DHT22;10936;49.836;7.078;2022-08-21T12:47:56;24.10;92.80
21551;DHT22;10936;49.836;7.078;2022-08-21T12:50:32;24.10;92.70
21551;DHT22;10936;49.836;7.078;2022-08-21T12:53:15;24.10;92.70
21551;DHT22;10936;49.836;7.078;2022-08-21T12:55:45;24.10;92.70
21551;DHT22;10936;49.836;7.078;2022-08-21T12:58:22;24.10;92.60
21551;DHT22;10936;49.836;7.078;2022-08-21T13:00:51;24.10;92.60
21551;DHT22;10936;49.836;7.078;2022-08-21T13:03:17;24.10;92.60
21551;DHT22;10936;49.836;7.078;2022-08-21T13:05:43;24.10;92.60
21551;DHT22;10936;49.836;7.078;2022-08-21T13:08:11;24.10;92.50
21551;DHT22;10936;49.836;7.078;2022-08-21T13:10:40;24.20;92.50
21551;DHT22;10936;49.836;7.078;2022-08-21T13:13:12;24.20;92.50
21551;DHT22;10936;49.836;7.078;2022-08-21T13:15:42;24.20;92.50
21551;DHT22;10936;49.836;7.078;2022-08-21T13:18:08;24.20;92.50
21551;DHT22;10936;49.836;7.078;2022-08-21T13:20:39;24.20;92.50
21551;DHT22;10936;49.836;7.078;2022-08-21T13:23:27;24.20;92.50
21551;DHT22;10936;49.836;7.078;2022-08-21T13:25:54;24.20;92.50
21551;DHT22;10936;49.836;7.078;2022-08-21T13:28:20;24.30;92.50
21551;DHT22;10936;49.836;7.078;2022-08-21T13:30:55;24.30;92.50
21551;DHT22;10936;49.836;7.078;2022-08-21T13:33:24;24.30;92.50
21551;DHT22;10936;49.836;7.078;2022-08-21T13:38:25;24.30;92.40
21551;DHT22;10936;49.836;7.078;2022-08-21T13:43:28;24.30;91.90
21551;DHT22;10936;49.836;7.078;2022-08-21T13:45:56;24.30;92.00
21551;DHT22;10936;49.836;7.078;2022-08-21T13:48:24;24.30;92.00
21551;DHT22;10936;49.836;7.078;2022-08-21T13:50:52;24.30;91.90
21551;DHT22;10936;49.836;7.078;2022-08-21T13:55:54;24.30;91.90
21551;DHT22;10936;49.836;7.078;2022-08-21T13:58:30;24.40;92.00
21551;DHT22;10936;49.836;7.078;2022-08-21T14:00:57;24.40;92.10
21551;DHT22;10936;49.836;7.078;2022-08-21T14:03:44;24.40;92.00
21551;DHT22;10936;49.836;7.078;2022-08-21T14:06:35;24.40;92.00
21551;DHT22;10936;49.836;7.078;2022-08-21T14:09:10;24.40;92.00
21551;DHT22;10936;49.836;7.078;2022-08-21T14:11:36;24.40;92.10
21551;DHT22;10936;49.836;7.078;2022-08-21T14:14:39;24.40;92.00
21551;DHT22;10936;49.836;7.078;2022-08-21T14:17:00;24.40;92.00
21551;DHT22;10936;49.836;7.078;2022-08-21T14:19:35;24.40;92.00
21551;DHT22;10936;49.836;7.078;2022-08-21T14:27:32;24.50;92.00
21551;DHT22;10936;49.836;7.078;2022-08-21T14:30:09;24.50;92.00
21551;DHT22;10936;49.836;7.078;2022-08-21T14:32:40;24.50;91.90
21551;DHT22;10936;49.836;7.078;2022-08-21T14:35:06;24.50;91.90
21551;DHT22;10936;49.836;7.078;2022-08-21T14:37:33;24.50;91.80
21551;DHT22;10936;49.836;7.078;2022-08-21T14:39:59;24.50;91.80
21551;DHT22;10936;49.836;7.078;2022-08-21T14:42:25;24.60;91.80
21551;DHT22;10936;49.836;7.078;2022-08-21T14:44:51;24.60;91.70
21551;DHT22;10936;49.836;7.078;2022-08-21T14:47:18;24.60;91.70
21551;DHT22;10936;49.836;7.078;2022-08-21T14:49:43;24.60;91.70
21551;DHT22;10936;49.836;7.078;2022-08-21T14:52:09;24.60;91.70
21551;DHT22;10936;49.836;7.078;2022-08-21T14:54:35;24.60;91.70
21551;DHT22;10936;49.836;7.078;2022-08-21T14:57:04;24.60;91.50
21551;DHT22;10936;49.836;7.078;2022-08-21T14:59:30;24.60;91.50
21551;DHT22;10936;49.836;7.078;2022-08-21T15:01:58;24.60;91.50
21551;DHT22;10936;49.836;7.078;2022-08-21T15:04:24;24.60;91.50
21551;DHT22;10936;49.836;7.078;2022-08-21T15:06:49;24.60;91.50
21551;DHT22;10936;49.836;7.078;2022-08-21T15:09:15;24.60;91.50
21551;DHT22;10936;49.836;7.078;2022-08-21T15:11:41;24.60;91.50
21551;DHT22;10936;49.836;7.078;2022-08-21T15:14:08;24.60;91.50
21551;DHT22;10936;49.836;7.078;2022-08-21T15:16:35;24.60;91.50
21551;DHT22;10936;49.836;7.078;2022-08-21T15:19:02;24.60;91.40
21551;DHT22;10936;49.836;7.078;2022-08-21T15:21:27;24.60;91.40
21551;DHT22;10936;49.836;7.078;2022-08-21T15:23:53;24.60;91.30
21551;DHT22;10936;49.836;7.078;2022-08-21T15:26:20;24.70;91.40
21551;DHT22;10936;49.836;7.078;2022-08-21T15:28:47;24.70;91.30
21551;DHT22;10936;49.836;7.078;2022-08-21T15:31:12;24.70;91.30
21551;DHT22;10936;49.836;7.078;2022-08-21T15:33:38;24.70;91.30
21551;DHT22;10936;49.836;7.078;2022-08-21T15:36:04;24.70;91.30
21551;DHT22;10936;49.836;7.078;2022-08-21T15:38:30;24.60;91.20
21551;DHT22;10936;49.836;7.078;2022-08-21T15:40:55;24.70;91.10
21551;DHT22;10936;49.836;7.078;2022-08-21T15:43:30;24.70;91.00
21551;DHT22;10936;49.836;7.078;2022-08-21T15:46:00;24.60;90.70
21551;DHT22;10936;49.836;7.078;2022-08-21T15:48:26;24.60;90.70
21551;DHT22;10936;49.836;7.078;2022-08-21T15:50:52;24.70;90.70
21551;DHT22;10936;49.836;7.078;2022-08-21T15:53:17;24.60;90.70
21551;DHT22;10936;49.836;7.078;2022-08-21T15:55:43;24.60;90.50
21551;DHT22;10936;49.836;7.078;2022-08-21T15:58:14;24.70;90.70
21551;DHT22;10936;49.836;7.078;2022-08-21T16:00:40;24.60;90.70
21551;DHT22;10936;49.836;7.078;2022-08-21T16:03:10;24.60;90.60
21551;DHT22;10936;49.836;7.078;2022-08-21T16:05:37;24.60;90.60
21551;DHT22;10936;49.836;7.078;2022-08-21T16:08:03;24.60;90.70
21551;DHT22;10936;49.836;7.078;2022-08-21T16:10:29;24.60;90.70
21551;DHT22;10936;49.836;7.078;2022-08-21T16:12:58;24.60;90.80
21551;DHT22;10936;49.836;7.078;2022-08-21T16:15:25;24.60;90.80
21551;DHT22;10936;49.836;7.078;2022-08-21T16:17:52;24.60;90.80
21551;DHT22;10936;49.836;7.078;2022-08-21T16:20:22;24.60;90.90
21551;DHT22;10936;49.836;7.078;2022-08-21T16:22:49;24.60;90.90
21551;DHT22;10936;49.836;7.078;2022-08-21T16:25:16;24.60;91.00
21551;DHT22;10936;49.836;7.078;2022-08-21T16:27:45;24.60;90.80
21551;DHT22;10936;49.836;7.078;2022-08-21T16:30:12;24.60;90.70
21551;DHT22;10936;49.836;7.078;2022-08-21T16:32:40;24.60;90.70
21551;DHT22;10936;49.836;7.078;2022-08-21T16:35:06;24.60;90.60
21551;DHT22;10936;49.836;7.078;2022-08-21T16:37:32;24.50;90.50
21551;DHT22;10936;49.836;7.078;2022-08-21T16:39:57;24.50;90.50
21551;DHT22;10936;49.836;7.078;2022-08-21T16:42:25;24.60;90.50
21551;DHT22;10936;49.836;7.078;2022-08-21T16:44:52;24.50;90.50
21551;DHT22;10936;49.836;7.078;2022-08-21T16:47:18;24.60;90.60
21551;DHT22;10936;49.836;7.078;2022-08-21T16:49:43;24.60;90.60
21551;DHT22;10936;49.836;7.078;2022-08-21T16:52:11;24.50;90.50
21551;DHT22;10936;49.836;7.078;2022-08-21T16:54:36;24.60;90.50
21551;DHT22;10936;49.836;7.078;2022-08-21T16:57:02;24.50;90.50
21551;DHT22;10936;49.836;7.078;2022-08-21T16:59:28;24.50;90.50
21551;DHT22;10936;49.836;7.078;2022-08-21T17:01:54;24.50;90.50
21551;DHT22;10936;49.836;7.078;2022-08-21T17:04:20;24.50;90.50
21551;DHT22;10936;49.836;7.078;2022-08-21T17:06:46;24.50;90.50
21551;DHT22;10936;49.836;7.078;2022-08-21T17:09:12;24.50;90.50
21551;DHT22;10936;49.836;7.078;2022-08-21T17:11:44;24.60;90.50
21551;DHT22;10936;49.836;7.078;2022-08-21T17:14:13;24.50;90.50
21551;DHT22;10936;49.836;7.078;2022-08-21T17:16:43;24.60;90.60
21551;DHT22;10936;49.836;7.078;2022-08-21T17:19:09;24.50;90.50
21551;DHT22;10936;49.836;7.078;2022-08-21T17:21:37;24.50;90.50
21551;DHT22;10936;49.836;7.078;2022-08-21T17:24:03;24.50;90.70
21551;DHT22;10936;49.836;7.078;2022-08-21T17:26:29;24.50;90.70
21551;DHT22;10936;49.836;7.078;2022-08-21T17:28:55;24.50;90.70
21551;DHT22;10936;49.836;7.078;2022-08-21T17:31:21;24.50;90.70
21551;DHT22;10936;49.836;7.078;2022-08-21T17:33:50;24.50;90.70
21551;DHT22;10936;49.836;7.078;2022-08-21T17:36:19;24.50;90.50
21551;DHT22;10936;49.836;7.078;2022-08-21T17:38:45;24.50;90.50
21551;DHT22;10936;49.836;7.078;2022-08-21T17:41:11;24.50;90.60
21551;DHT22;10936;49.836;7.078;2022-08-21T17:43:38;24.50;90.60
21551;DHT22;10936;49.836;7.078;2022-08-21T17:46:05;24.50;90.50
21551;DHT22;10936;49.836;7.078;2022-08-21T17:48:32;24.50;90.50
21551;DHT22;10936;49.836;7.078;2022-08-21T17:50:58;24.50;90.50
21551;DHT22;10936;49.836;7.078;2022-08-21T17:53:24;24.50;90.40
21551;DHT22;10936;49.836;7.078;2022-08-21T17:55:50;24.50;90.50
21551;DHT22;10936;49.836;7.078;2022-08-21T17:58:16;24.50;90.50
21551;DHT22;10936;49.836;7.078;2022-08-21T18:00:42;24.50;90.50
21551;DHT22;10936;49.836;7.078;2022-08-21T18:03:15;24.50;90.50
21551;DHT22;10936;49.836;7.078;2022-08-21T18:05:43;24.50;90.50
21551;DHT22;10936;49.836;7.078;2022-08-21T18:08:09;24.50;90.50
21551;DHT22;10936;49.836;7.078;2022-08-21T18:10:37;24.50;90.50
21551;DHT22;10936;49.836;7.078;2022-08-21T18:13:06;24.50;90.50
21551;DHT22;10936;49.836;7.078;2022-08-21T18:15:32;24.50;90.50
21551;DHT22;10936;49.836;7.078;2022-08-21T18:17:59;24.40;90.50
21551;DHT22;10936;49.836;7.078;2022-08-21T18:20:26;24.50;90.50
21551;DHT22;10936;49.836;7.078;2022-08-21T18:22:52;24.50;90.60
21551;DHT22;10936;49.836;7.078;2022-08-21T18:25:18;24.40;90.50
21551;DHT22;10936;49.836;7.078;2022-08-21T18:27:45;24.50;90.60
21551;DHT22;10936;49.836;7.078;2022-08-21T18:30:18;24.50;90.60
21551;DHT22;10936;49.836;7.078;2022-08-21T18:32:44;24.50;90.60
21551;DHT22;10936;49.836;7.078;2022-08-21T18:35:11;24.50;90.70
21551;DHT22;10936;49.836;7.078;2022-08-21T18:37:37;24.50;90.70
21551;DHT22;10936;49.836;7.078;2022-08-21T18:40:05;24.50;90.70
21551;DHT22;10936;49.836;7.078;2022-08-21T18:42:41;24.40;90.70
21551;DHT22;10936;49.836;7.078;2022-08-21T18:45:10;24.50;90.80
21551;DHT22;10936;49.836;7.078;2022-08-21T18:47:49;24.50;90.80
21551;DHT22;10936;49.836;7.078;2022-08-21T18:50:17;24.50;90.80
21551;DHT22;10936;49.836;7.078;2022-08-21T18:52:43;24.50;90.90
21551;DHT22;10936;49.836;7.078;2022-08-21T18:55:12;24.50;90.90
21551;DHT22;10936;49.836;7.078;2022-08-21T18:57:38;24.50;91.00
21551;DHT22;10936;49.836;7.078;2022-08-21T19:00:15;24.40;91.00
21551;DHT22;10936;49.836;7.078;2022-08-21T19:02:42;24.50;91.10
21551;DHT22;10936;49.836;7.078;2022-08-21T19:05:10;24.50;91.20
21551;DHT22;10936;49.836;7.078;2022-08-21T19:07:37;24.50;91.20
21551;DHT22;10936;49.836;7.078;2022-08-21T19:10:05;24.50;91.20
21551;DHT22;10936;49.836;7.078;2022-08-21T19:12:31;24.50;91.20
21551;DHT22;10936;49.836;7.078;2022-08-21T19:14:58;24.50;91.30
21551;DHT22;10936;49.836;7.078;2022-08-21T19:17:24;24.50;91.30
21551;DHT22;10936;49.836;7.078;2022-08-21T19:19:50;24.50;91.30
21551;DHT22;10936;49.836;7.078;2022-08-21T19:22:16;24.50;91.40
21551;DHT22;10936;49.836;7.078;2022-08-21T19:24:42;24.50;91.40
21551;DHT22;10936;49.836;7.078;2022-08-21T19:27:09;24.50;91.40
21551;DHT22;10936;49.836;7.078;2022-08-21T19:29:37;24.50;91.40
21551;DHT22;10936;49.836;7.078;2022-08-21T19:32:04;24.50;91.40
21551;DHT22;10936;49.836;7.078;2022-08-21T19:34:30;24.50;91.50
21551;DHT22;10936;49.836;7.078;2022-08-21T19:36:58;24.40;91.50
21551;DHT22;10936;49.836;7.078;2022-08-21T19:39:24;24.40;91.40
21551;DHT22;10936;49.836;7.078;2022-08-21T19:41:56;24.40;91.40
21551;DHT22;10936;49.836;7.078;2022-08-21T19:44:26;24.40;91.30
21551;DHT22;10936;49.836;7.078;2022-08-21T19:46:53;24.40;91.20
21551;DHT22;10936;49.836;7.078;2022-08-21T19:49:24;24.40;91.20
21551;DHT22;10936;49.836;7.078;2022-08-21T19:51:51;24.40;91.20
21551;DHT22;10936;49.836;7.078;2022-08-21T19:54:23;24.40;91.10
21551;DHT22;10936;49.836;7.078;2022-08-21T19:56:50;24.30;91.10
21551;DHT22;10936;49.836;7.078;2022-08-21T19:59:17;24.40;91.00
21551;DHT22;10936;49.836;7.078;2022-08-21T20:01:44;24.30;91.00
21551;DHT22;10936;49.836;7.078;2022-08-21T20:04:10;24.30;91.10
21551;DHT22;10936;49.836;7.078;2022-08-21T20:06:36;24.30;91.10
21551;DHT22;10936;49.836;7.078;2022-08-21T20:09:03;24.30;91.10
21551;DHT22;10936;49.836;7.078;2022-08-21T20:11:35;24.30;91.20
21551;DHT22;10936;49.836;7.078;2022-08-21T20:14:02;24.30;91.20
21551;DHT22;10936;49.836;7.078;2022-08-21T20:16:28;24.30;91.20
21551;DHT22;10936;49.836;7.078;2022-08-21T20:18:55;24.30;91.20
21551;DHT22;10936;49.836;7.078;2022-08-21T20:21:21;24.30;91.20
21551;DHT22;10936;49.836;7.078;2022-08-21T20:23:47;24.30;91.30
21551;DHT22;10936;49.836;7.078;2022-08-21T20:26:12;24.30;91.30
21551;DHT22;10936;49.836;7.078;2022-08-21T20:28:39;24.30;91.30
21551;DHT22;10936;49.836;7.078;2022-08-21T20:31:05;24.30;91.40
21551;DHT22;10936;49.836;7.078;2022-08-21T20:33:30;24.30;91.40
21551;DHT22;10936;49.836;7.078;2022-08-21T20:35:56;24.30;91.80
21551;DHT22;10936;49.836;7.078;2022-08-21T20:38:22;24.30;91.40
21551;DHT22;10936;49.836;7.078;2022-08-21T20:40:50;24.30;91.50
21551;DHT22;10936;49.836;7.078;2022-08-21T20:43:17;24.30;91.50
21551;DHT22;10936;49.836;7.078;2022-08-21T20:45:44;24.30;91.50
21551;DHT22;10936;49.836;7.078;2022-08-21T20:50:50;24.30;91.50
21551;DHT22;10936;49.836;7.078;2022-08-21T20:53:40;24.30;91.50
21551;DHT22;10936;49.836;7.078;2022-08-21T20:56:12;24.30;91.50
21551;DHT22;10936;49.836;7.078;2022-08-21T20:58:57;24.30;91.50
21551;DHT22;10936;49.836;7.078;2022-08-21T21:01:24;24.20;91.50
21551;DHT22;10936;49.836;7.078;2022-08-21T21:06:51;24.10;91.60
21551;DHT22;10936;49.836;7.078;2022-08-21T21:09:55;24.00;91.80
21551;DHT22;10936;49.836;7.078;2022-08-21T21:12:21;23.90;91.90
21551;DHT22;10936;49.836;7.078;2022-08-21T21:14:53;23.90;91.80
21551;DHT22;10936;49.836;7.078;2022-08-21T21:17:27;23.90;91.80
21551;DHT22;10936;49.836;7.078;2022-08-21T21:20:03;23.80;91.80
21551;DHT22;10936;49.836;7.078;2022-08-21T21:22:35;23.80;91.80
21551;DHT22;10936;49.836;7.078;2022-08-21T21:25:16;23.80;92.00
21551;DHT22;10936;49.836;7.078;2022-08-21T21:27:54;23.70;92.00
